createdAt,value
2022-09-03T00:00:40.389Z,11.44
2022-09-03T00:01:40.433Z,11.33
2022-09-03T00:02:40.409Z,11.26
2022-09-03T00:03:40.367Z,11.19
2022-09-03T00:04:40.382Z,11.17
2022-09-03T00:05:40.350Z,11.29
2022-09-03T00:06:40.340Z,11.14
2022-09-03T00:07:40.329Z,11.08
2022-09-03T00:08:40.793Z,11.17
2022-09-03T00:09:40.340Z,11.14
2022-09-03T00:10:40.310Z,11.11
2022-09-03T00:11:40.301Z,11.10
2022-09-03T00:12:40.295Z,11.07
2022-09-03T00:13:40.286Z,11.11
2022-09-03T00:14:40.305Z,11.10
2022-09-03T00:15:40.305Z,11.00
2022-09-03T00:16:40.266Z,11.05
2022-09-03T00:17:40.250Z,11.08
2022-09-03T00:18:40.240Z,10.97
2022-09-03T00:19:41.259Z,11.04
2022-09-03T00:20:40.237Z,11.07
2022-09-03T00:21:40.229Z,11.02
2022-09-03T00:22:40.217Z,11.07
2022-09-03T00:23:40.209Z,11.07
2022-09-03T00:24:40.219Z,11.02
2022-09-03T00:25:40.193Z,10.97
2022-09-03T00:26:40.180Z,11.07
2022-09-03T00:27:40.173Z,11.05
2022-09-03T00:28:40.167Z,11.04
2022-09-03T00:29:40.186Z,11.12
2022-09-03T00:30:40.147Z,11.10
2022-09-03T00:31:40.182Z,11.02
2022-09-03T00:32:40.130Z,11.00
2022-09-03T00:33:40.126Z,10.92
2022-09-03T00:34:40.140Z,10.93
2022-09-03T00:35:40.107Z,10.96
2022-09-03T00:36:40.103Z,11.04
2022-09-03T00:37:40.093Z,10.97
2022-09-03T00:38:40.085Z,10.84
2022-09-03T00:39:40.160Z,10.89
2022-09-03T00:40:40.073Z,10.87
2022-09-03T00:41:40.065Z,10.89
2022-09-03T00:42:40.055Z,10.82
2022-09-03T00:43:40.046Z,10.82
2022-09-03T00:44:40.062Z,10.79
2022-09-03T00:45:40.027Z,10.74
2022-09-03T00:46:40.083Z,10.72
2022-09-03T00:47:40.011Z,10.67
2022-09-03T00:48:41.010Z,10.68
2022-09-03T00:49:40.024Z,10.60
2022-09-03T00:50:39.990Z,10.59
2022-09-03T00:51:39.987Z,10.63
2022-09-03T00:52:39.978Z,10.51
2022-09-03T00:53:39.964Z,10.64
2022-09-03T00:54:39.988Z,10.53
2022-09-03T00:55:39.951Z,10.67
2022-09-03T00:56:39.943Z,10.59
2022-09-03T00:57:39.944Z,10.54
2022-09-03T00:58:39.928Z,10.49
2022-09-03T00:59:39.944Z,10.54
2022-09-03T01:00:39.904Z,10.61
2022-09-03T01:01:39.990Z,10.56
2022-09-03T01:02:40.030Z,10.56
2022-09-03T01:03:39.886Z,10.46
2022-09-03T01:04:39.908Z,10.49
2022-09-03T01:05:39.869Z,10.48
2022-09-03T01:06:39.862Z,10.57
2022-09-03T01:07:39.853Z,10.56
2022-09-03T01:08:39.845Z,10.49
2022-09-03T01:09:39.860Z,10.42
2022-09-03T01:10:39.865Z,10.53
2022-09-03T01:11:39.825Z,10.49
2022-09-03T01:12:39.816Z,10.48
2022-09-03T01:13:39.804Z,10.44
2022-09-03T01:14:39.832Z,10.35
2022-09-03T01:15:39.824Z,10.33
2022-09-03T01:16:39.785Z,10.34
2022-09-03T01:17:39.770Z,10.35
2022-09-03T01:18:39.769Z,10.28
2022-09-03T01:19:39.785Z,10.22
2022-09-03T01:20:39.753Z,10.20
2022-09-03T01:21:39.747Z,10.25
2022-09-03T01:22:40.763Z,10.20
2022-09-03T01:23:39.729Z,10.20
2022-09-03T01:24:39.724Z,10.20
2022-09-03T01:25:39.741Z,10.22
2022-09-03T01:26:39.707Z,10.12
2022-09-03T01:27:39.702Z,10.25
2022-09-03T01:28:39.691Z,10.01
2022-09-03T01:29:39.830Z,10.12
2022-09-03T01:30:39.740Z,10.12
2022-09-03T01:31:39.668Z,10.07
2022-09-03T01:32:39.660Z,10.12
2022-09-03T01:33:39.652Z,10.07
2022-09-03T01:34:39.642Z,9.98
2022-09-03T01:35:39.658Z,10.01
2022-09-03T01:36:39.627Z,10.01
2022-09-03T01:37:39.622Z,10.02
2022-09-03T01:38:39.611Z,10.04
2022-09-03T01:39:39.653Z,10.07
2022-09-03T01:40:39.626Z,9.98
2022-09-03T01:41:39.593Z,10.02
2022-09-03T01:42:39.592Z,9.98
2022-09-03T01:43:44.709Z,9.99
2022-09-03T01:44:41.565Z,9.92
2022-09-03T01:45:39.587Z,10.02
2022-09-03T01:46:39.658Z,9.87
2022-09-03T01:47:39.550Z,9.84
2022-09-03T01:48:39.538Z,9.89
2022-09-03T01:49:39.540Z,9.83
2022-09-03T01:50:39.551Z,9.89
2022-09-03T01:51:39.540Z,9.83
2022-09-03T01:52:39.518Z,9.72
2022-09-03T01:53:39.501Z,9.74
2022-09-03T01:54:39.506Z,9.77
2022-09-03T01:55:39.561Z,9.79
2022-09-03T01:56:39.475Z,9.77
2022-09-03T01:57:39.468Z,9.62
2022-09-03T01:58:39.461Z,9.77
2022-09-03T01:59:39.456Z,9.74
2022-09-03T02:00:39.468Z,9.68
2022-09-03T02:01:39.477Z,9.73
2022-09-03T02:02:39.450Z,9.74
2022-09-03T02:03:41.133Z,9.68
2022-09-03T02:04:39.415Z,9.59
2022-09-03T02:05:39.433Z,9.65
2022-09-03T02:06:39.402Z,9.73
2022-09-03T02:07:39.382Z,9.74
2022-09-03T02:08:40.385Z,9.62
2022-09-03T02:09:39.378Z,9.62
2022-09-03T02:10:39.399Z,9.61
2022-09-03T02:11:39.359Z,9.64
2022-09-03T02:12:39.356Z,9.59
2022-09-03T02:13:39.348Z,9.62
2022-09-03T02:14:39.337Z,9.51
2022-09-03T02:15:39.423Z,9.54
2022-09-03T02:16:39.319Z,9.56
2022-09-03T02:17:39.316Z,9.50
2022-09-03T02:18:39.306Z,9.44
2022-09-03T02:19:39.306Z,9.37
2022-09-03T02:20:39.291Z,9.46
2022-09-03T02:21:39.307Z,9.43
2022-09-03T02:22:39.275Z,9.34
2022-09-03T02:23:39.263Z,9.37
2022-09-03T02:24:39.259Z,9.40
2022-09-03T02:25:39.286Z,9.41
2022-09-03T02:26:39.251Z,9.36
2022-09-03T02:27:39.225Z,9.40
2022-09-03T02:28:40.230Z,9.41
2022-09-03T02:29:39.226Z,9.31
2022-09-03T02:30:39.253Z,9.31
2022-09-03T02:31:39.229Z,9.36
2022-09-03T02:32:39.198Z,9.31
2022-09-03T02:33:39.189Z,9.32
2022-09-03T02:34:39.182Z,9.26
2022-09-03T02:35:39.172Z,9.37
2022-09-03T02:36:39.200Z,9.31
2022-09-03T02:37:39.159Z,9.36
2022-09-03T02:38:39.154Z,9.26
2022-09-03T02:39:39.503Z,9.34
2022-09-03T02:40:40.140Z,9.31
2022-09-03T02:41:39.151Z,9.26
2022-09-03T02:42:39.125Z,9.29
2022-09-03T02:43:39.118Z,9.29
2022-09-03T02:44:39.106Z,9.26
2022-09-03T02:45:39.173Z,9.21
2022-09-03T02:46:39.132Z,9.22
2022-09-03T02:47:39.086Z,9.26
2022-09-03T02:48:39.074Z,9.22
2022-09-03T02:49:39.066Z,9.18
2022-09-03T02:50:39.060Z,9.13
2022-09-03T02:51:39.087Z,9.23
2022-09-03T02:52:39.043Z,9.22
2022-09-03T02:53:39.034Z,9.18
2022-09-03T02:54:39.033Z,9.25
2022-09-03T02:55:39.027Z,9.18
2022-09-03T02:56:39.038Z,9.14
2022-09-03T02:57:39.006Z,9.26
2022-09-03T02:58:38.998Z,9.22
2022-09-03T02:59:38.987Z,9.21
2022-09-03T03:00:38.987Z,9.19
2022-09-03T03:01:39.062Z,9.22
2022-09-03T03:02:39.012Z,9.11
2022-09-03T03:03:38.975Z,9.19
2022-09-03T03:04:38.952Z,9.10
2022-09-03T03:05:38.942Z,9.04
2022-09-03T03:06:39.015Z,9.03
2022-09-03T03:07:38.932Z,9.13
2022-09-03T03:08:38.917Z,8.91
2022-09-03T03:09:38.915Z,9.04
2022-09-03T03:10:38.904Z,9.10
2022-09-03T03:11:38.921Z,9.04
2022-09-03T03:12:38.890Z,9.02
2022-09-03T03:13:38.880Z,9.06
2022-09-03T03:14:39.879Z,9.08
2022-09-03T03:15:38.867Z,8.97
2022-09-03T03:16:38.946Z,9.02
2022-09-03T03:17:38.847Z,8.89
2022-09-03T03:18:38.842Z,8.89
2022-09-03T03:19:38.837Z,8.87
2022-09-03T03:20:38.828Z,8.87
2022-09-03T03:21:38.844Z,8.73
2022-09-03T03:22:38.801Z,8.85
2022-09-03T03:23:39.803Z,8.78
2022-09-03T03:24:38.799Z,8.69
2022-09-03T03:25:38.789Z,8.70
2022-09-03T03:26:38.808Z,8.76
2022-09-03T03:27:38.776Z,8.70
2022-09-03T03:28:38.764Z,8.63
2022-09-03T03:29:38.760Z,8.60
2022-09-03T03:30:38.775Z,8.84
2022-09-03T03:31:38.915Z,8.61
2022-09-03T03:32:38.737Z,8.58
2022-09-03T03:33:38.730Z,8.67
2022-09-03T03:34:38.724Z,8.63
2022-09-03T03:35:38.720Z,8.63
2022-09-03T03:36:38.739Z,8.61
2022-09-03T03:37:38.693Z,8.64
2022-09-03T03:38:38.685Z,8.53
2022-09-03T03:39:38.728Z,8.64
2022-09-03T03:40:38.682Z,8.64
2022-09-03T03:41:38.684Z,8.61
2022-09-03T03:42:38.666Z,8.53
2022-09-03T03:43:38.654Z,8.53
2022-09-03T03:44:38.647Z,8.55
2022-09-03T03:45:38.680Z,8.55
2022-09-03T03:46:38.657Z,8.56
2022-09-03T03:47:38.621Z,8.60
2022-09-03T03:48:38.615Z,8.48
2022-09-03T03:49:38.601Z,8.46
2022-09-03T03:50:38.599Z,8.49
2022-09-03T03:51:38.628Z,8.60
2022-09-03T03:52:38.588Z,8.53
2022-09-03T03:53:38.574Z,8.46
2022-09-03T03:54:38.574Z,8.46
2022-09-03T03:55:38.567Z,8.45
2022-09-03T03:56:38.582Z,8.46
2022-09-03T03:57:38.545Z,8.48
2022-09-03T03:58:38.537Z,8.36
2022-09-03T03:59:38.524Z,8.36
2022-09-03T04:00:38.525Z,8.38
2022-09-03T04:01:38.586Z,8.41
2022-09-03T04:02:39.272Z,8.36
2022-09-03T04:03:39.500Z,8.34
2022-09-03T04:04:38.497Z,8.28
2022-09-03T04:05:43.298Z,8.28
2022-09-03T04:06:40.508Z,8.31
2022-09-03T04:07:38.470Z,8.31
2022-09-03T04:08:38.464Z,8.30
2022-09-03T04:09:38.459Z,8.26
2022-09-03T04:10:38.450Z,8.24
2022-09-03T04:11:38.467Z,8.27
2022-09-03T04:12:38.439Z,8.34
2022-09-03T04:13:38.422Z,8.33
2022-09-03T04:14:38.432Z,8.31
2022-09-03T04:15:38.414Z,8.26
2022-09-03T04:16:38.445Z,8.31
2022-09-03T04:17:38.393Z,8.27
2022-09-03T04:18:38.386Z,8.23
2022-09-03T04:19:38.384Z,8.23
2022-09-03T04:20:38.370Z,8.30
2022-09-03T04:21:38.394Z,8.33
2022-09-03T04:22:38.363Z,8.26
2022-09-03T04:23:38.352Z,8.27
2022-09-03T04:24:38.348Z,8.28
2022-09-03T04:25:38.332Z,8.30
2022-09-03T04:26:38.355Z,8.30
2022-09-03T04:27:38.323Z,8.34
2022-09-03T04:28:38.310Z,8.28
2022-09-03T04:29:38.311Z,8.31
2022-09-03T04:30:38.334Z,8.26
2022-09-03T04:31:38.310Z,8.28
2022-09-03T04:32:38.280Z,8.26
2022-09-03T04:33:38.274Z,8.26
2022-09-03T04:34:38.262Z,8.19
2022-09-03T04:35:38.254Z,8.24
2022-09-03T04:36:38.278Z,8.24
2022-09-03T04:37:38.245Z,8.23
2022-09-03T04:38:38.236Z,8.27
2022-09-03T04:39:38.292Z,8.26
2022-09-03T04:40:38.214Z,8.33
2022-09-03T04:41:38.235Z,8.24
2022-09-03T04:42:38.202Z,8.24
2022-09-03T04:43:38.191Z,8.27
2022-09-03T04:44:38.188Z,8.37
2022-09-03T04:45:38.212Z,8.28
2022-09-03T04:46:38.201Z,8.28
2022-09-03T04:47:38.156Z,8.41
2022-09-03T04:48:38.159Z,8.28
2022-09-03T04:49:38.143Z,8.42
2022-09-03T04:50:38.138Z,8.34
2022-09-03T04:51:38.110Z,8.45
2022-09-03T04:52:39.146Z,8.42
2022-09-03T04:53:38.117Z,8.61
2022-09-03T04:54:38.099Z,8.49
2022-09-03T04:55:38.099Z,8.60
2022-09-03T04:56:38.090Z,8.56
2022-09-03T04:57:38.109Z,8.69
2022-09-03T04:58:38.061Z,8.73
2022-09-03T04:59:39.061Z,8.78
2022-09-03T05:00:38.057Z,8.91
2022-09-03T05:01:38.164Z,8.97
2022-09-03T05:02:38.140Z,9.26
2022-09-03T05:03:38.036Z,9.87
2022-09-03T05:04:38.033Z,10.53
2022-09-03T05:05:38.022Z,10.93
2022-09-03T05:06:38.017Z,11.25
2022-09-03T05:07:38.030Z,11.63
2022-09-03T05:08:37.990Z,12.09
2022-09-03T05:09:37.989Z,12.68
2022-09-03T05:10:37.976Z,12.94
2022-09-03T05:11:37.966Z,13.37
2022-09-03T05:12:37.994Z,13.78
2022-09-03T05:13:37.952Z,14.20
2022-09-03T05:14:37.946Z,14.45
2022-09-03T05:15:37.942Z,14.81
2022-09-03T05:16:38.004Z,14.96
2022-09-03T05:17:37.941Z,15.14
2022-09-03T05:18:37.906Z,15.18
2022-09-03T05:19:38.912Z,15.44
2022-09-03T05:20:37.889Z,15.59
2022-09-03T05:21:38.917Z,15.75
2022-09-03T05:22:37.882Z,15.86
2022-09-03T05:23:37.932Z,16.21
2022-09-03T05:24:37.871Z,16.47
2022-09-03T05:25:37.869Z,16.54
2022-09-03T05:26:37.878Z,16.78
2022-09-03T05:27:37.845Z,16.87
2022-09-03T05:28:37.839Z,16.78
2022-09-03T05:29:37.836Z,17.01
2022-09-03T05:30:37.820Z,17.11
2022-09-03T05:31:37.873Z,17.23
2022-09-03T05:32:37.802Z,17.24
2022-09-03T05:33:38.794Z,17.20
2022-09-03T05:34:37.790Z,17.08
2022-09-03T05:35:37.781Z,17.33
2022-09-03T05:36:37.801Z,17.52
2022-09-03T05:37:37.766Z,17.48
2022-09-03T05:38:37.771Z,17.54
2022-09-03T05:39:37.843Z,17.39
2022-09-03T05:40:37.744Z,16.51
2022-09-03T05:41:37.730Z,15.75
2022-09-03T05:42:37.762Z,15.04
2022-09-03T05:43:37.733Z,14.40
2022-09-03T05:44:37.710Z,13.81
2022-09-03T05:45:37.759Z,13.87
2022-09-03T05:46:37.693Z,13.86
2022-09-03T05:47:37.714Z,14.22
2022-09-03T05:48:37.687Z,14.10
2022-09-03T05:49:37.680Z,13.85
2022-09-03T05:50:37.669Z,13.41
2022-09-03T05:51:37.661Z,13.74
2022-09-03T05:52:37.677Z,13.38
2022-09-03T05:53:37.643Z,13.04
2022-09-03T05:54:37.634Z,12.70
2022-09-03T05:55:37.627Z,12.43
2022-09-03T05:56:37.622Z,12.15
2022-09-03T05:57:37.631Z,12.45
2022-09-03T05:58:37.606Z,13.23
2022-09-03T05:59:37.599Z,14.58
2022-09-03T06:00:37.594Z,15.62
2022-09-03T06:01:37.627Z,16.66
2022-09-03T06:02:37.674Z,17.36
2022-09-03T06:03:37.648Z,17.87
2022-09-03T06:04:37.564Z,18.19
2022-09-03T06:05:37.556Z,18.47
2022-09-03T06:06:37.545Z,18.62
2022-09-03T06:07:37.564Z,18.92
2022-09-03T06:08:37.534Z,18.92
2022-09-03T06:09:37.527Z,19.39
2022-09-03T06:10:40.965Z,19.86
2022-09-03T06:11:38.640Z,20.31
2022-09-03T06:12:37.533Z,20.58
2022-09-03T06:13:37.508Z,20.70
2022-09-03T06:14:37.492Z,20.95
2022-09-03T06:15:37.478Z,20.77
2022-09-03T06:16:37.535Z,20.77
2022-09-03T06:17:37.484Z,20.87
2022-09-03T06:18:37.548Z,20.97
2022-09-03T06:19:37.451Z,21.14
2022-09-03T06:20:37.524Z,21.36
2022-09-03T06:21:37.432Z,21.72
2022-09-03T06:22:37.449Z,21.83
2022-09-03T06:23:37.419Z,22.18
2022-09-03T06:24:37.412Z,22.50
2022-09-03T06:25:37.404Z,22.80
2022-09-03T06:26:37.394Z,22.91
2022-09-03T06:27:37.411Z,22.99
2022-09-03T06:28:37.376Z,23.13
2022-09-03T06:29:37.367Z,23.39
2022-09-03T06:30:37.373Z,23.65
2022-09-03T06:31:37.416Z,23.80
2022-09-03T06:32:37.384Z,23.96
2022-09-03T06:33:37.343Z,24.08
2022-09-03T06:34:37.338Z,24.54
2022-09-03T06:35:42.795Z,24.81
2022-09-03T06:36:38.322Z,24.88
2022-09-03T06:37:37.340Z,24.93
2022-09-03T06:38:37.307Z,25.17
2022-09-03T06:39:37.363Z,25.53
2022-09-03T06:40:37.298Z,25.91
2022-09-03T06:41:37.300Z,26.09
2022-09-03T06:42:37.288Z,26.41
2022-09-03T06:43:37.297Z,26.43
2022-09-03T06:44:37.268Z,26.60
2022-09-03T06:45:37.297Z,26.89
2022-09-03T06:46:37.271Z,27.10
2022-09-03T06:47:37.251Z,27.10
2022-09-03T06:48:37.273Z,27.07
2022-09-03T06:49:37.232Z,26.81
2022-09-03T06:50:37.234Z,26.74
2022-09-03T06:51:37.220Z,26.68
2022-09-03T06:52:37.213Z,26.89
2022-09-03T06:53:37.231Z,26.90
2022-09-03T06:54:37.204Z,27.20
2022-09-03T06:55:37.193Z,27.80
2022-09-03T06:56:40.226Z,27.74
2022-09-03T06:57:38.192Z,27.55
2022-09-03T06:58:37.201Z,27.55
2022-09-03T06:59:37.165Z,27.77
2022-09-03T07:00:37.216Z,27.18
2022-09-03T07:01:37.290Z,26.58
2022-09-03T07:02:39.691Z,25.65
2022-09-03T07:03:37.170Z,24.91
2022-09-03T07:04:37.132Z,24.35
2022-09-03T07:05:37.129Z,24.21
2022-09-03T07:06:37.127Z,24.26
2022-09-03T07:07:37.118Z,24.24
2022-09-03T07:08:37.132Z,23.77
2022-09-03T07:09:37.097Z,23.34
2022-09-03T07:10:37.097Z,23.06
2022-09-03T07:11:37.086Z,23.09
2022-09-03T07:12:37.093Z,22.99
2022-09-03T07:13:37.103Z,22.70
2022-09-03T07:14:37.073Z,22.28
2022-09-03T07:15:37.064Z,21.55
2022-09-03T07:16:37.191Z,21.64
2022-09-03T07:17:37.056Z,21.29
2022-09-03T07:18:37.043Z,21.00
2022-09-03T07:19:37.057Z,20.66
2022-09-03T07:20:37.026Z,20.81
2022-09-03T07:21:37.079Z,21.66
2022-09-03T07:22:37.016Z,22.18
2022-09-03T07:23:37.005Z,22.38
2022-09-03T07:24:37.030Z,22.13
2022-09-03T07:25:36.993Z,21.76
2022-09-03T07:26:36.982Z,21.67
2022-09-03T07:27:36.989Z,21.67
2022-09-03T07:28:36.978Z,21.79
2022-09-03T07:29:37.001Z,22.23
2022-09-03T07:30:36.961Z,22.39
2022-09-03T07:31:36.979Z,22.73
2022-09-03T07:32:36.952Z,23.00
2022-09-03T07:33:36.938Z,22.81
2022-09-03T07:34:36.977Z,23.02
2022-09-03T07:35:36.926Z,22.84
2022-09-03T07:36:36.949Z,22.81
2022-09-03T07:37:36.921Z,22.81
2022-09-03T07:38:36.916Z,22.81
2022-09-03T07:39:36.972Z,22.70
2022-09-03T07:40:36.907Z,22.68
2022-09-03T07:41:36.886Z,22.84
2022-09-03T07:42:36.888Z,23.08
2022-09-03T07:43:36.879Z,22.78
2022-09-03T07:44:36.891Z,23.05
2022-09-03T07:45:36.866Z,23.23
2022-09-03T07:46:36.890Z,23.06
2022-09-03T07:47:36.853Z,22.81
2022-09-03T07:48:37.664Z,22.87
2022-09-03T07:49:37.834Z,22.78
2022-09-03T07:50:36.827Z,22.91
2022-09-03T07:51:36.847Z,23.18
2022-09-03T07:52:36.813Z,23.15
2022-09-03T07:53:36.812Z,23.41
2022-09-03T07:54:36.793Z,23.31
2022-09-03T07:55:36.781Z,23.54
2022-09-03T07:56:36.808Z,23.27
2022-09-03T07:57:36.767Z,23.31
2022-09-03T07:58:36.767Z,23.25
2022-09-03T07:59:36.761Z,23.44
2022-09-03T08:00:36.799Z,23.54
2022-09-03T08:01:36.774Z,23.56
2022-09-03T08:02:36.743Z,23.73
2022-09-03T08:03:36.776Z,23.91
2022-09-03T08:04:36.726Z,23.88
2022-09-03T08:05:36.714Z,23.65
2022-09-03T08:06:36.743Z,23.31
2022-09-03T08:07:36.702Z,23.17
2022-09-03T08:08:36.698Z,23.10
2022-09-03T08:09:36.688Z,23.03
2022-09-03T08:10:36.683Z,23.03
2022-09-03T08:11:36.707Z,23.20
2022-09-03T08:12:36.666Z,23.06
2022-09-03T08:13:36.658Z,23.31
2022-09-03T08:14:36.654Z,23.87
2022-09-03T08:15:36.654Z,23.46
2022-09-03T08:16:36.738Z,23.40
2022-09-03T08:17:36.662Z,23.77
2022-09-03T08:18:36.626Z,23.58
2022-09-03T08:19:36.616Z,23.40
2022-09-03T08:20:36.615Z,23.27
2022-09-03T08:21:36.634Z,23.65
2022-09-03T08:22:36.598Z,23.71
2022-09-03T08:23:36.592Z,23.59
2022-09-03T08:24:36.587Z,23.03
2022-09-03T08:25:36.577Z,22.55
2022-09-03T08:26:36.595Z,22.70
2022-09-03T08:27:36.562Z,22.80
2022-09-03T08:28:36.554Z,22.35
2022-09-03T08:29:36.547Z,21.77
2022-09-03T08:30:36.555Z,21.48
2022-09-03T08:31:36.690Z,21.32
2022-09-03T08:32:36.519Z,21.52
2022-09-03T08:33:36.514Z,21.70
2022-09-03T08:34:36.504Z,21.75
2022-09-03T08:35:36.501Z,21.55
2022-09-03T08:36:36.519Z,21.67
2022-09-03T08:37:36.483Z,21.66
2022-09-03T08:38:36.471Z,21.64
2022-09-03T08:39:36.502Z,21.55
2022-09-03T08:40:36.457Z,21.69
2022-09-03T08:41:36.478Z,21.85
2022-09-03T08:42:36.442Z,22.08
2022-09-03T08:43:36.434Z,22.44
2022-09-03T08:44:36.428Z,22.53
2022-09-03T08:45:36.420Z,22.54
2022-09-03T08:46:36.512Z,22.33
2022-09-03T08:47:36.403Z,22.10
2022-09-03T08:48:36.397Z,22.35
2022-09-03T08:49:36.391Z,22.41
2022-09-03T08:50:36.378Z,22.39
2022-09-03T08:51:36.401Z,22.39
2022-09-03T08:52:36.365Z,22.66
2022-09-03T08:53:36.364Z,22.98
2022-09-03T08:54:36.355Z,23.37
2022-09-03T08:55:36.345Z,23.36
2022-09-03T08:56:36.351Z,23.37
2022-09-03T08:57:36.326Z,23.20
2022-09-03T08:58:36.328Z,23.24
2022-09-03T08:59:36.315Z,23.25
2022-09-03T09:00:36.309Z,23.25
2022-09-03T09:01:36.392Z,23.12
2022-09-03T09:02:36.396Z,22.96
2022-09-03T09:03:36.284Z,22.90
2022-09-03T09:04:36.278Z,22.84
2022-09-03T09:05:36.272Z,22.81
2022-09-03T09:06:36.282Z,23.06
2022-09-03T09:07:36.261Z,23.27
2022-09-03T09:08:36.245Z,23.59
2022-09-03T09:09:36.236Z,23.59
2022-09-03T09:10:36.236Z,23.73
2022-09-03T09:11:36.247Z,23.74
2022-09-03T09:12:44.063Z,23.76
2022-09-03T09:13:38.207Z,23.50
2022-09-03T09:14:36.200Z,22.75
2022-09-03T09:15:36.295Z,22.57
2022-09-03T09:16:36.211Z,22.60
2022-09-03T09:17:36.184Z,22.81
2022-09-03T09:18:36.169Z,22.65
2022-09-03T09:19:36.160Z,22.43
2022-09-03T09:20:37.149Z,22.22
2022-09-03T09:21:36.169Z,22.13
2022-09-03T09:22:36.137Z,22.02
2022-09-03T09:23:36.135Z,22.17
2022-09-03T09:24:36.129Z,21.80
2022-09-03T09:25:36.125Z,21.93
2022-09-03T09:26:36.142Z,21.93
2022-09-03T09:27:36.104Z,21.89
2022-09-03T09:28:36.094Z,21.96
2022-09-03T09:29:36.087Z,21.89
2022-09-03T09:30:36.078Z,21.91
2022-09-03T09:31:36.138Z,22.02
2022-09-03T09:32:36.060Z,21.89
2022-09-03T09:33:36.056Z,21.82
2022-09-03T09:34:36.049Z,21.88
2022-09-03T09:35:36.064Z,21.83
2022-09-03T09:36:36.035Z,21.88
2022-09-03T09:37:36.019Z,22.18
2022-09-03T09:38:37.016Z,22.41
2022-09-03T09:39:36.060Z,22.93
2022-09-03T09:40:36.023Z,23.12
2022-09-03T09:41:35.995Z,23.12
2022-09-03T09:42:35.984Z,23.25
2022-09-03T09:43:35.986Z,23.41
2022-09-03T09:44:35.973Z,23.61
2022-09-03T09:45:35.993Z,23.62
2022-09-03T09:46:35.986Z,23.63
2022-09-03T09:47:35.947Z,23.86
2022-09-03T09:48:35.938Z,23.87
2022-09-03T09:49:35.936Z,23.78
2022-09-03T09:50:35.950Z,23.99
2022-09-03T09:51:35.914Z,24.02
2022-09-03T09:52:35.914Z,24.11
2022-09-03T09:53:35.903Z,24.05
2022-09-03T09:54:35.892Z,24.03
2022-09-03T09:55:35.917Z,23.69
2022-09-03T09:56:35.880Z,23.50
2022-09-03T09:57:35.875Z,23.37
2022-09-03T09:58:35.866Z,23.62
2022-09-03T09:59:35.857Z,23.71
2022-09-03T10:00:35.850Z,23.65
2022-09-03T10:01:35.924Z,23.71
2022-09-03T10:02:35.870Z,23.73
2022-09-03T10:03:35.833Z,23.77
2022-09-03T10:04:35.822Z,23.83
2022-09-03T10:05:35.813Z,24.03
2022-09-03T10:06:35.830Z,24.17
2022-09-03T10:07:35.799Z,24.33
2022-09-03T10:08:35.790Z,24.53
2022-09-03T10:09:35.785Z,24.70
2022-09-03T10:10:35.774Z,24.86
2022-09-03T10:11:35.800Z,24.85
2022-09-03T10:12:35.761Z,24.84
2022-09-03T10:13:35.754Z,24.86
2022-09-03T10:14:35.750Z,24.86
2022-09-03T10:15:35.800Z,24.98
2022-09-03T10:16:35.774Z,25.04
2022-09-03T10:17:37.092Z,25.28
2022-09-03T10:18:35.721Z,25.01
2022-09-03T10:19:35.711Z,24.84
2022-09-03T10:20:35.707Z,24.78
2022-09-03T10:21:35.726Z,24.63
2022-09-03T10:22:35.696Z,24.29
2022-09-03T10:23:35.879Z,24.43
2022-09-03T10:24:35.672Z,24.73
2022-09-03T10:25:35.667Z,25.11
2022-09-03T10:26:35.688Z,25.26
2022-09-03T10:27:35.652Z,25.41
2022-09-03T10:28:35.641Z,25.13
2022-09-03T10:29:35.637Z,25.03
2022-09-03T10:30:35.626Z,24.98
2022-09-03T10:31:35.701Z,25.01
2022-09-03T10:32:37.927Z,24.81
2022-09-03T10:33:35.598Z,24.80
2022-09-03T10:34:35.592Z,24.78
2022-09-03T10:35:35.588Z,24.76
2022-09-03T10:36:35.603Z,24.68
2022-09-03T10:37:35.570Z,24.60
2022-09-03T10:38:35.566Z,24.70
2022-09-03T10:39:38.809Z,25.03
2022-09-03T10:40:36.544Z,25.25
2022-09-03T10:41:35.572Z,25.46
2022-09-03T10:42:35.531Z,25.70
2022-09-03T10:43:35.525Z,25.93
2022-09-03T10:44:35.540Z,26.02
2022-09-03T10:45:37.751Z,25.55
2022-09-03T10:46:35.622Z,25.33
2022-09-03T10:47:35.491Z,25.07
2022-09-03T10:48:35.488Z,25.07
2022-09-03T10:49:35.480Z,24.98
2022-09-03T10:50:35.496Z,24.89
2022-09-03T10:51:35.463Z,24.98
2022-09-03T10:52:35.455Z,24.89
2022-09-03T10:53:35.454Z,24.85
2022-09-03T10:54:35.447Z,24.54
2022-09-03T10:55:35.435Z,24.45
2022-09-03T10:56:35.455Z,24.35
2022-09-03T10:57:35.421Z,24.26
2022-09-03T10:58:35.414Z,24.42
2022-09-03T10:59:35.402Z,24.74
2022-09-03T11:00:35.392Z,24.88
2022-09-03T11:01:35.511Z,24.96
2022-09-03T11:02:35.418Z,25.07
2022-09-03T11:03:35.374Z,25.41
2022-09-03T11:04:37.667Z,25.63
2022-09-03T11:05:35.350Z,25.99
2022-09-03T11:06:35.375Z,26.21
2022-09-03T11:07:35.338Z,26.36
2022-09-03T11:08:35.328Z,26.36
2022-09-03T11:09:35.323Z,26.18
2022-09-03T11:10:35.314Z,26.02
2022-09-03T11:11:35.328Z,25.93
2022-09-03T11:12:35.318Z,25.83
2022-09-03T11:13:35.293Z,25.83
2022-09-03T11:14:35.285Z,26.03
2022-09-03T11:15:35.329Z,26.34
2022-09-03T11:16:35.317Z,26.59
2022-09-03T11:17:35.260Z,26.60
2022-09-03T11:18:35.268Z,26.59
2022-09-03T11:19:35.243Z,26.65
2022-09-03T11:20:35.236Z,26.66
2022-09-03T11:21:35.309Z,26.89
2022-09-03T11:22:35.218Z,27.02
2022-09-03T11:23:35.199Z,27.17
2022-09-03T11:24:36.207Z,27.42
2022-09-03T11:25:35.199Z,27.37
2022-09-03T11:26:35.216Z,27.36
2022-09-03T11:27:35.179Z,27.45
2022-09-03T11:28:35.180Z,27.40
2022-09-03T11:29:35.166Z,27.12
2022-09-03T11:30:35.254Z,26.66
2022-09-03T11:31:35.203Z,26.45
2022-09-03T11:32:35.145Z,26.25
2022-09-03T11:33:35.133Z,26.36
2022-09-03T11:34:35.135Z,26.31
2022-09-03T11:35:35.124Z,26.38
2022-09-03T11:36:35.143Z,26.44
2022-09-03T11:37:35.112Z,26.44
2022-09-03T11:38:35.100Z,26.37
2022-09-03T11:39:35.145Z,26.29
2022-09-03T11:40:35.083Z,26.07
2022-09-03T11:41:35.098Z,26.28
2022-09-03T11:42:35.086Z,26.15
2022-09-03T11:43:35.060Z,26.05
2022-09-03T11:44:35.053Z,25.99
2022-09-03T11:45:35.041Z,26.00
2022-09-03T11:46:35.079Z,26.05
2022-09-03T11:47:35.088Z,26.06
2022-09-03T11:48:35.020Z,25.98
2022-09-03T11:49:35.014Z,25.99
2022-09-03T11:50:38.001Z,26.05
2022-09-03T11:51:35.034Z,26.15
2022-09-03T11:52:34.991Z,26.29
2022-09-03T11:53:34.986Z,26.33
2022-09-03T11:54:34.975Z,26.25
2022-09-03T11:55:40.473Z,26.31
2022-09-03T11:56:37.003Z,26.34
2022-09-03T11:57:34.954Z,26.26
2022-09-03T11:58:34.966Z,26.16
2022-09-03T11:59:34.936Z,26.16
2022-09-03T12:00:34.931Z,26.19
2022-09-03T12:01:34.953Z,26.21
2022-09-03T12:02:35.042Z,26.28
2022-09-03T12:03:34.909Z,26.31
2022-09-03T12:04:34.954Z,26.25
2022-09-03T12:05:34.904Z,26.33
2022-09-03T12:06:34.910Z,26.41
2022-09-03T12:07:34.880Z,26.45
2022-09-03T12:08:34.870Z,26.41
2022-09-03T12:09:34.866Z,26.48
2022-09-03T12:10:34.859Z,26.52
2022-09-03T12:11:34.873Z,26.38
2022-09-03T12:12:34.841Z,26.48
2022-09-03T12:13:35.833Z,26.31
2022-09-03T12:14:34.923Z,26.15
2022-09-03T12:15:34.855Z,25.98
2022-09-03T12:16:34.842Z,25.88
2022-09-03T12:17:34.807Z,25.93
2022-09-03T12:18:34.801Z,25.83
2022-09-03T12:19:34.857Z,25.84
2022-09-03T12:20:34.783Z,25.66
2022-09-03T12:21:34.799Z,25.58
2022-09-03T12:22:34.784Z,25.51
2022-09-03T12:23:34.757Z,25.51
2022-09-03T12:24:37.755Z,25.48
2022-09-03T12:25:35.746Z,25.54
2022-09-03T12:26:34.768Z,25.51
2022-09-03T12:27:34.731Z,25.65
2022-09-03T12:28:34.726Z,25.47
2022-09-03T12:29:34.719Z,25.48
2022-09-03T12:30:34.763Z,25.53
2022-09-03T12:31:34.713Z,25.59
2022-09-03T12:32:34.718Z,25.66
2022-09-03T12:33:34.684Z,25.69
2022-09-03T12:34:34.680Z,25.77
2022-09-03T12:36:36.698Z,25.95
2022-09-03T12:39:00.696Z,26.09
2022-09-03T12:40:07.987Z,26.16
2022-09-03T12:41:23.061Z,26.13
2022-09-03T12:41:35.675Z,26.10
2022-09-03T12:42:34.663Z,26.02
2022-09-03T12:43:39.023Z,25.91
2022-09-03T12:44:35.605Z,25.91
2022-09-03T12:46:36.656Z,25.85
2022-09-03T12:47:37.344Z,25.90
2022-09-03T12:48:35.580Z,25.90
2022-09-03T12:49:34.566Z,25.87
2022-09-03T12:50:34.558Z,25.93
2022-09-03T12:51:54.368Z,25.99
2022-09-03T12:52:36.568Z,26.18
2022-09-03T12:53:34.537Z,26.07
2022-09-03T12:54:34.530Z,26.25
2022-09-03T12:55:34.518Z,26.25
2022-09-03T12:56:34.546Z,26.10
2022-09-03T12:57:34.503Z,26.15
2022-09-03T12:58:34.496Z,26.18
2022-09-03T12:59:34.535Z,26.18
2022-09-03T13:00:34.488Z,26.07
2022-09-03T13:01:34.578Z,26.18
2022-09-03T13:02:34.469Z,26.10